sensor_id;sensor_type;location;lat;lon;timestamp;pressure;altitude;pressure_sealevel;temperature;humidity
38616;BME280;24370;51.986;4.666;2023-10-31T00:02:07;99736.38;;;18.84;57.07
38616;BME280;24370;51.986;4.666;2023-10-31T00:04:33;99728.63;;;18.66;57.59
38616;BME280;24370;51.986;4.666;2023-10-31T00:06:58;99732.97;;;18.81;57.56
38616;BME280;24370;51.986;4.666;2023-10-31T00:09:24;99736.78;;;18.33;60.29
38616;BME280;24370;51.986;4.666;2023-10-31T00:11:49;99732.13;;;17.45;63.10
38616;BME280;24370;51.986;4.666;2023-10-31T00:14:14;99735.19;;;18.00;59.78
38616;BME280;24370;51.986;4.666;2023-10-31T00:16:40;99732.91;;;17.77;61.88
38616;BME280;24370;51.986;4.666;2023-10-31T00:19:05;99724.47;;;19.05;58.28
38616;BME280;24370;51.986;4.666;2023-10-31T00:21:31;99733.44;;;18.14;60.42
38616;BME280;24370;51.986;4.666;2023-10-31T00:23:56;99730.84;;;18.43;59.60
38616;BME280;24370;51.986;4.666;2023-10-31T00:26:22;99734.44;;;18.28;60.52
38616;BME280;24370;51.986;4.666;2023-10-31T00:28:47;99732.75;;;18.56;60.73
38616;BME280;24370;51.986;4.666;2023-10-31T00:31:12;99730.50;;;18.64;59.34
38616;BME280;24370;51.986;4.666;2023-10-31T00:33:39;99737.25;;;18.25;61.04
38616;BME280;24370;51.986;4.666;2023-10-31T00:36:04;99734.47;;;18.86;59.44
38616;BME280;24370;51.986;4.666;2023-10-31T00:38:30;99733.38;;;18.75;58.97
38616;BME280;24370;51.986;4.666;2023-10-31T00:40:55;99740.63;;;19.57;56.62
38616;BME280;24370;51.986;4.666;2023-10-31T00:43:21;99737.75;;;19.32;56.92
38616;BME280;24370;51.986;4.666;2023-10-31T00:45:46;99744.22;;;18.85;58.49
38616;BME280;24370;51.986;4.666;2023-10-31T00:48:12;99747.38;;;17.56;64.57
38616;BME280;24370;51.986;4.666;2023-10-31T00:50:37;99749.75;;;17.44;64.51
38616;BME280;24370;51.986;4.666;2023-10-31T00:53:02;99751.13;;;17.52;64.70
38616;BME280;24370;51.986;4.666;2023-10-31T00:55:28;99756.69;;;18.69;61.55
38616;BME280;24370;51.986;4.666;2023-10-31T00:57:53;99754.03;;;18.40;60.63
38616;BME280;24370;51.986;4.666;2023-10-31T01:00:19;99755.59;;;18.28;61.03
38616;BME280;24370;51.986;4.666;2023-10-31T01:02:44;99747.56;;;19.03;58.46
38616;BME280;24370;51.986;4.666;2023-10-31T01:05:11;99758.75;;;18.04;64.24
38616;BME280;24370;51.986;4.666;2023-10-31T01:07:36;99757.84;;;18.20;62.34
38616;BME280;24370;51.986;4.666;2023-10-31T01:10:02;99772.31;;;18.28;62.97
38616;BME280;24370;51.986;4.666;2023-10-31T01:12:28;99778.72;;;18.24;62.49
38616;BME280;24370;51.986;4.666;2023-10-31T01:14:56;99776.75;;;18.28;62.89
38616;BME280;24370;51.986;4.666;2023-10-31T01:17:22;99784.94;;;18.68;61.17
38616;BME280;24370;51.986;4.666;2023-10-31T01:19:47;99780.16;;;18.30;61.12
38616;BME280;24370;51.986;4.666;2023-10-31T01:22:13;99779.47;;;17.96;63.82
38616;BME280;24370;51.986;4.666;2023-10-31T01:24:38;99781.09;;;17.83;65.03
38616;BME280;24370;51.986;4.666;2023-10-31T01:27:04;99777.00;;;17.77;64.65
38616;BME280;24370;51.986;4.666;2023-10-31T01:29:29;99775.59;;;18.18;63.10
38616;BME280;24370;51.986;4.666;2023-10-31T01:31:55;99783.44;;;18.64;61.72
38616;BME280;24370;51.986;4.666;2023-10-31T01:34:21;99778.94;;;18.36;61.80
38616;BME280;24370;51.986;4.666;2023-10-31T01:36:46;99793.47;;;17.01;68.11
38616;BME280;24370;51.986;4.666;2023-10-31T01:39:12;99786.41;;;18.29;64.47
38616;BME280;24370;51.986;4.666;2023-10-31T01:41:37;99786.72;;;18.98;60.75
38616;BME280;24370;51.986;4.666;2023-10-31T01:44:02;99790.75;;;18.30;62.67
38616;BME280;24370;51.986;4.666;2023-10-31T01:46:28;99807.97;;;17.59;64.82
38616;BME280;24370;51.986;4.666;2023-10-31T01:48:56;99810.44;;;17.94;63.72
38616;BME280;24370;51.986;4.666;2023-10-31T01:51:22;99812.53;;;18.50;63.29
38616;BME280;24370;51.986;4.666;2023-10-31T01:53:47;99809.16;;;18.01;63.55
38616;BME280;24370;51.986;4.666;2023-10-31T01:56:13;99820.56;;;16.87;68.17
38616;BME280;24370;51.986;4.666;2023-10-31T01:58:39;99812.47;;;17.57;65.68
38616;BME280;24370;51.986;4.666;2023-10-31T02:01:04;99817.91;;;18.18;61.50
38616;BME280;24370;51.986;4.666;2023-10-31T02:03:30;99819.38;;;18.82;60.70
38616;BME280;24370;51.986;4.666;2023-10-31T02:05:57;99821.31;;;18.20;61.26
38616;BME280;24370;51.986;4.666;2023-10-31T02:08:23;99820.81;;;17.81;62.87
38616;BME280;24370;51.986;4.666;2023-10-31T02:10:49;99825.34;;;18.41;62.90
38616;BME280;24370;51.986;4.666;2023-10-31T02:13:17;99827.28;;;18.54;60.22
38616;BME280;24370;51.986;4.666;2023-10-31T02:15:43;99839.06;;;18.18;62.44
38616;BME280;24370;51.986;4.666;2023-10-31T02:18:09;99840.78;;;17.55;65.44
38616;BME280;24370;51.986;4.666;2023-10-31T02:20:35;99832.59;;;17.75;64.53
38616;BME280;24370;51.986;4.666;2023-10-31T02:23:01;99834.81;;;17.99;62.51
38616;BME280;24370;51.986;4.666;2023-10-31T02:25:27;99836.59;;;17.83;63.14
38616;BME280;24370;51.986;4.666;2023-10-31T02:27:53;99836.66;;;18.29;62.73
38616;BME280;24370;51.986;4.666;2023-10-31T02:30:18;99835.31;;;19.11;59.60
38616;BME280;24370;51.986;4.666;2023-10-31T02:32:44;99846.78;;;18.67;59.59
38616;BME280;24370;51.986;4.666;2023-10-31T02:35:09;99835.66;;;17.84;65.58
38616;BME280;24370;51.986;4.666;2023-10-31T02:37:35;99842.66;;;17.85;67.35
38616;BME280;24370;51.986;4.666;2023-10-31T02:40:00;99851.66;;;17.49;66.43
38616;BME280;24370;51.986;4.666;2023-10-31T02:42:26;99858.91;;;16.41;73.03
38616;BME280;24370;51.986;4.666;2023-10-31T02:44:52;99851.81;;;17.45;68.59
38616;BME280;24370;51.986;4.666;2023-10-31T02:47:17;99841.59;;;17.87;68.12
38616;BME280;24370;51.986;4.666;2023-10-31T02:49:43;99861.47;;;17.78;66.40
38616;BME280;24370;51.986;4.666;2023-10-31T02:52:08;99857.97;;;17.62;65.84
38616;BME280;24370;51.986;4.666;2023-10-31T02:54:34;99855.75;;;17.54;67.93
38616;BME280;24370;51.986;4.666;2023-10-31T02:56:59;99864.09;;;17.46;67.00
38616;BME280;24370;51.986;4.666;2023-10-31T02:59:25;99862.84;;;17.70;68.20
38616;BME280;24370;51.986;4.666;2023-10-31T03:01:50;99864.66;;;17.85;67.67
38616;BME280;24370;51.986;4.666;2023-10-31T03:04:15;99868.38;;;17.65;67.61
38616;BME280;24370;51.986;4.666;2023-10-31T03:06:41;99877.88;;;17.36;67.43
38616;BME280;24370;51.986;4.666;2023-10-31T03:09:07;99867.44;;;17.66;66.95
38616;BME280;24370;51.986;4.666;2023-10-31T03:11:32;99878.47;;;17.25;69.84
38616;BME280;24370;51.986;4.666;2023-10-31T03:13:58;99873.94;;;17.76;66.91
38616;BME280;24370;51.986;4.666;2023-10-31T03:16:24;99887.44;;;17.38;64.31
38616;BME280;24370;51.986;4.666;2023-10-31T03:18:49;99877.53;;;17.26;67.16
38616;BME280;24370;51.986;4.666;2023-10-31T03:21:15;99890.56;;;16.41;69.37
38616;BME280;24370;51.986;4.666;2023-10-31T03:23:47;99887.34;;;17.06;67.13
38616;BME280;24370;51.986;4.666;2023-10-31T03:26:14;99879.66;;;18.01;62.70
38616;BME280;24370;51.986;4.666;2023-10-31T03:28:39;99885.28;;;18.26;59.99
38616;BME280;24370;51.986;4.666;2023-10-31T03:31:04;99874.97;;;18.06;60.22
38616;BME280;24370;51.986;4.666;2023-10-31T03:33:30;99893.63;;;18.35;60.76
38616;BME280;24370;51.986;4.666;2023-10-31T03:35:55;99906.47;;;18.87;59.02
38616;BME280;24370;51.986;4.666;2023-10-31T03:38:20;99908.84;;;17.99;60.14
38616;BME280;24370;51.986;4.666;2023-10-31T03:40:46;99904.00;;;17.58;63.25
38616;BME280;24370;51.986;4.666;2023-10-31T03:43:11;99900.31;;;18.26;60.05
38616;BME280;24370;51.986;4.666;2023-10-31T03:45:36;99900.06;;;17.99;60.13
38616;BME280;24370;51.986;4.666;2023-10-31T03:48:02;99904.22;;;18.65;59.50
38616;BME280;24370;51.986;4.666;2023-10-31T03:50:27;99907.13;;;18.30;59.57
38616;BME280;24370;51.986;4.666;2023-10-31T03:52:53;99904.91;;;18.38;58.20
38616;BME280;24370;51.986;4.666;2023-10-31T03:55:19;99907.78;;;18.50;57.20
38616;BME280;24370;51.986;4.666;2023-10-31T03:57:45;99902.56;;;18.78;56.53
38616;BME280;24370;51.986;4.666;2023-10-31T04:00:10;99904.75;;;18.09;58.78
38616;BME280;24370;51.986;4.666;2023-10-31T04:02:37;99900.75;;;18.64;57.18
38616;BME280;24370;51.986;4.666;2023-10-31T04:05:04;99907.88;;;17.84;60.37
38616;BME280;24370;51.986;4.666;2023-10-31T04:07:30;99912.19;;;18.49;59.52
38616;BME280;24370;51.986;4.666;2023-10-31T04:09:55;99919.19;;;18.66;57.26
38616;BME280;24370;51.986;4.666;2023-10-31T04:12:21;99911.97;;;18.68;58.07
38616;BME280;24370;51.986;4.666;2023-10-31T04:14:47;99911.19;;;19.12;56.40
38616;BME280;24370;51.986;4.666;2023-10-31T04:17:12;99909.69;;;18.31;57.61
38616;BME280;24370;51.986;4.666;2023-10-31T04:19:37;99906.78;;;18.36;58.42
38616;BME280;24370;51.986;4.666;2023-10-31T04:22:03;99911.22;;;18.20;59.43
38616;BME280;24370;51.986;4.666;2023-10-31T04:24:29;99916.81;;;17.81;61.65
38616;BME280;24370;51.986;4.666;2023-10-31T04:26:54;99924.81;;;17.64;62.46
38616;BME280;24370;51.986;4.666;2023-10-31T04:29:19;99924.47;;;17.70;61.13
38616;BME280;24370;51.986;4.666;2023-10-31T04:31:45;99940.75;;;17.29;62.74
38616;BME280;24370;51.986;4.666;2023-10-31T04:34:10;99949.66;;;17.26;62.74
38616;BME280;24370;51.986;4.666;2023-10-31T04:36:36;99940.03;;;18.40;58.95
38616;BME280;24370;51.986;4.666;2023-10-31T04:39:01;99939.53;;;18.50;58.60
38616;BME280;24370;51.986;4.666;2023-10-31T04:41:26;99952.09;;;18.92;58.28
38616;BME280;24370;51.986;4.666;2023-10-31T04:43:52;99936.66;;;18.38;58.53
38616;BME280;24370;51.986;4.666;2023-10-31T04:46:17;99952.00;;;18.16;60.41
38616;BME280;24370;51.986;4.666;2023-10-31T04:48:43;99952.91;;;17.49;61.16
38616;BME280;24370;51.986;4.666;2023-10-31T04:51:08;99955.75;;;18.11;60.26
38616;BME280;24370;51.986;4.666;2023-10-31T04:53:33;99952.50;;;18.06;59.73
38616;BME280;24370;51.986;4.666;2023-10-31T04:56:00;99954.91;;;18.27;57.77
38616;BME280;24370;51.986;4.666;2023-10-31T04:58:25;99964.28;;;18.01;58.67
38616;BME280;24370;51.986;4.666;2023-10-31T05:00:51;99965.19;;;17.84;59.83
38616;BME280;24370;51.986;4.666;2023-10-31T05:03:16;99966.72;;;17.54;60.50
38616;BME280;24370;51.986;4.666;2023-10-31T05:05:42;99974.91;;;17.32;61.05
38616;BME280;24370;51.986;4.666;2023-10-31T05:08:08;99974.72;;;17.53;60.60
38616;BME280;24370;51.986;4.666;2023-10-31T05:10:34;99974.94;;;17.66;60.22
38616;BME280;24370;51.986;4.666;2023-10-31T05:13:00;99979.50;;;17.79;58.93
38616;BME280;24370;51.986;4.666;2023-10-31T05:15:27;99986.72;;;18.09;59.29
38616;BME280;24370;51.986;4.666;2023-10-31T05:17:52;99985.66;;;17.62;59.78
38616;BME280;24370;51.986;4.666;2023-10-31T05:20:18;99990.53;;;18.04;60.41
38616;BME280;24370;51.986;4.666;2023-10-31T05:22:43;99987.72;;;17.73;59.82
38616;BME280;24370;51.986;4.666;2023-10-31T05:25:08;99995.66;;;16.68;64.62
38616;BME280;24370;51.986;4.666;2023-10-31T05:27:34;99995.09;;;17.33;62.26
38616;BME280;24370;51.986;4.666;2023-10-31T05:30:00;99996.34;;;17.08;62.40
38616;BME280;24370;51.986;4.666;2023-10-31T05:32:25;99995.91;;;17.18;60.37
38616;BME280;24370;51.986;4.666;2023-10-31T05:34:50;100007.69;;;16.93;63.12
38616;BME280;24370;51.986;4.666;2023-10-31T05:37:16;100007.22;;;17.37;63.13
38616;BME280;24370;51.986;4.666;2023-10-31T05:39:41;99999.84;;;17.77;62.00
38616;BME280;24370;51.986;4.666;2023-10-31T05:42:06;100015.69;;;17.61;61.23
38616;BME280;24370;51.986;4.666;2023-10-31T05:44:32;100014.38;;;17.00;63.77
38616;BME280;24370;51.986;4.666;2023-10-31T05:46:57;100011.88;;;17.32;64.17
38616;BME280;24370;51.986;4.666;2023-10-31T05:49:23;100021.84;;;16.54;66.69
38616;BME280;24370;51.986;4.666;2023-10-31T05:51:52;100025.09;;;17.15;65.52
38616;BME280;24370;51.986;4.666;2023-10-31T05:54:17;100021.97;;;17.24;64.56
38616;BME280;24370;51.986;4.666;2023-10-31T05:56:43;100017.94;;;17.52;64.12
38616;BME280;24370;51.986;4.666;2023-10-31T05:59:10;100019.66;;;17.35;64.68
38616;BME280;24370;51.986;4.666;2023-10-31T06:01:35;100020.31;;;16.86;65.69
38616;BME280;24370;51.986;4.666;2023-10-31T06:04:00;100013.38;;;16.84;65.12
38616;BME280;24370;51.986;4.666;2023-10-31T06:06:26;100022.13;;;17.56;62.85
38616;BME280;24370;51.986;4.666;2023-10-31T06:08:51;100019.66;;;17.35;64.16
38616;BME280;24370;51.986;4.666;2023-10-31T06:11:16;100029.59;;;17.12;64.46
38616;BME280;24370;51.986;4.666;2023-10-31T06:13:42;100030.63;;;17.78;64.25
38616;BME280;24370;51.986;4.666;2023-10-31T06:16:07;100032.53;;;17.24;64.23
38616;BME280;24370;51.986;4.666;2023-10-31T06:18:33;100040.81;;;17.35;64.25
38616;BME280;24370;51.986;4.666;2023-10-31T06:20:59;100041.16;;;16.73;65.85
38616;BME280;24370;51.986;4.666;2023-10-31T06:23:25;100044.81;;;16.90;66.07
38616;BME280;24370;51.986;4.666;2023-10-31T06:25:50;100042.66;;;17.33;64.00
38616;BME280;24370;51.986;4.666;2023-10-31T06:28:15;100037.84;;;18.42;58.42
38616;BME280;24370;51.986;4.666;2023-10-31T06:30:41;100040.34;;;17.95;61.21
38616;BME280;24370;51.986;4.666;2023-10-31T06:33:06;100046.63;;;19.06;56.03
38616;BME280;24370;51.986;4.666;2023-10-31T06:35:33;100051.75;;;17.45;61.07
38616;BME280;24370;51.986;4.666;2023-10-31T06:37:59;100057.50;;;18.54;57.30
38616;BME280;24370;51.986;4.666;2023-10-31T06:40:25;100064.41;;;17.38;59.89
38616;BME280;24370;51.986;4.666;2023-10-31T06:42:50;100061.81;;;17.02;62.82
38616;BME280;24370;51.986;4.666;2023-10-31T06:45:15;100063.44;;;17.74;60.76
38616;BME280;24370;51.986;4.666;2023-10-31T06:47:41;100064.31;;;18.26;57.97
38616;BME280;24370;51.986;4.666;2023-10-31T06:50:07;100065.25;;;17.21;61.60
38616;BME280;24370;51.986;4.666;2023-10-31T06:52:33;100063.22;;;17.09;63.85
38616;BME280;24370;51.986;4.666;2023-10-31T06:54:58;100080.50;;;16.21;65.35
38616;BME280;24370;51.986;4.666;2023-10-31T06:57:23;100081.50;;;16.18;67.67
38616;BME280;24370;51.986;4.666;2023-10-31T06:59:49;100081.00;;;16.29;68.34
38616;BME280;24370;51.986;4.666;2023-10-31T07:02:14;100086.84;;;17.47;63.54
38616;BME280;24370;51.986;4.666;2023-10-31T07:04:39;100093.63;;;16.79;64.52
38616;BME280;24370;51.986;4.666;2023-10-31T07:07:05;100102.97;;;16.68;66.39
38616;BME280;24370;51.986;4.666;2023-10-31T07:09:30;100098.34;;;17.63;62.08
38616;BME280;24370;51.986;4.666;2023-10-31T07:11:56;100103.09;;;17.74;62.25
38616;BME280;24370;51.986;4.666;2023-10-31T07:14:21;100097.03;;;17.37;64.80
38616;BME280;24370;51.986;4.666;2023-10-31T07:16:47;100097.34;;;17.31;63.46
38616;BME280;24370;51.986;4.666;2023-10-31T07:19:13;100111.94;;;16.83;66.98
38616;BME280;24370;51.986;4.666;2023-10-31T07:21:39;100105.50;;;16.52;68.29
38616;BME280;24370;51.986;4.666;2023-10-31T07:24:05;100107.72;;;17.17;67.18
38616;BME280;24370;51.986;4.666;2023-10-31T07:26:34;100119.22;;;17.16;66.60
38616;BME280;24370;51.986;4.666;2023-10-31T07:28:59;100116.66;;;17.14;68.28
38616;BME280;24370;51.986;4.666;2023-10-31T07:31:25;100112.59;;;17.43;66.15
38616;BME280;24370;51.986;4.666;2023-10-31T07:33:50;100115.84;;;17.84;63.43
38616;BME280;24370;51.986;4.666;2023-10-31T07:36:15;100112.09;;;17.70;62.96
38616;BME280;24370;51.986;4.666;2023-10-31T07:38:41;100115.88;;;19.14;59.50
38616;BME280;24370;51.986;4.666;2023-10-31T07:41:07;100124.16;;;18.76;59.61
38616;BME280;24370;51.986;4.666;2023-10-31T07:43:32;100128.09;;;18.20;60.99
38616;BME280;24370;51.986;4.666;2023-10-31T07:45:57;100131.22;;;17.23;68.18
38616;BME280;24370;51.986;4.666;2023-10-31T07:48:23;100132.97;;;17.76;64.13
38616;BME280;24370;51.986;4.666;2023-10-31T07:50:48;100130.72;;;18.53;62.09
38616;BME280;24370;51.986;4.666;2023-10-31T07:53:13;100125.06;;;18.43;61.68
38616;BME280;24370;51.986;4.666;2023-10-31T07:55:39;100124.41;;;18.56;60.06
38616;BME280;24370;51.986;4.666;2023-10-31T07:58:04;100127.81;;;18.08;62.38
38616;BME280;24370;51.986;4.666;2023-10-31T08:00:29;100130.94;;;17.99;62.21
38616;BME280;24370;51.986;4.666;2023-10-31T08:02:56;100125.44;;;18.69;61.13
38616;BME280;24370;51.986;4.666;2023-10-31T08:05:21;100123.41;;;18.74;60.35
38616;BME280;24370;51.986;4.666;2023-10-31T08:07:47;100126.75;;;18.28;62.59
38616;BME280;24370;51.986;4.666;2023-10-31T08:10:13;100131.34;;;18.25;62.82
38616;BME280;24370;51.986;4.666;2023-10-31T08:12:38;100131.47;;;18.06;62.08
38616;BME280;24370;51.986;4.666;2023-10-31T08:15:04;100131.97;;;19.11;60.01
38616;BME280;24370;51.986;4.666;2023-10-31T08:17:30;100131.34;;;18.25;63.21
38616;BME280;24370;51.986;4.666;2023-10-31T08:19:56;100134.97;;;18.06;63.11
38616;BME280;24370;51.986;4.666;2023-10-31T08:22:21;100138.00;;;17.81;64.43
38616;BME280;24370;51.986;4.666;2023-10-31T08:24:46;100135.47;;;18.30;62.79
38616;BME280;24370;51.986;4.666;2023-10-31T08:27:12;100144.06;;;17.66;65.90
38616;BME280;24370;51.986;4.666;2023-10-31T08:29:38;100138.63;;;18.37;62.63
38616;BME280;24370;51.986;4.666;2023-10-31T08:32:03;100149.00;;;18.58;62.51
38616;BME280;24370;51.986;4.666;2023-10-31T08:34:29;100156.31;;;18.53;61.76
38616;BME280;24370;51.986;4.666;2023-10-31T08:36:55;100155.56;;;19.00;61.15
38616;BME280;24370;51.986;4.666;2023-10-31T08:39:21;100153.59;;;17.86;67.01
38616;BME280;24370;51.986;4.666;2023-10-31T08:41:51;100159.38;;;17.94;65.43
38616;BME280;24370;51.986;4.666;2023-10-31T08:44:17;100160.34;;;17.93;66.05
38616;BME280;24370;51.986;4.666;2023-10-31T08:46:43;100172.34;;;18.16;65.95
38616;BME280;24370;51.986;4.666;2023-10-31T08:49:08;100162.84;;;18.63;64.94
38616;BME280;24370;51.986;4.666;2023-10-31T08:51:33;100169.78;;;17.62;69.30
38616;BME280;24370;51.986;4.666;2023-10-31T08:53:59;100173.97;;;18.19;65.46
38616;BME280;24370;51.986;4.666;2023-10-31T08:56:24;100172.13;;;18.21;66.35
38616;BME280;24370;51.986;4.666;2023-10-31T08:58:52;100176.06;;;19.12;63.88
38616;BME280;24370;51.986;4.666;2023-10-31T09:01:18;100178.50;;;18.50;66.65
38616;BME280;24370;51.986;4.666;2023-10-31T09:03:43;100185.44;;;19.02;64.13
38616;BME280;24370;51.986;4.666;2023-10-31T09:06:09;100180.34;;;19.92;62.46
38616;BME280;24370;51.986;4.666;2023-10-31T09:08:35;100193.47;;;19.17;62.03
38616;BME280;24370;51.986;4.666;2023-10-31T09:11:03;100190.84;;;18.67;64.27
38616;BME280;24370;51.986;4.666;2023-10-31T09:13:28;100188.53;;;18.61;64.95
38616;BME280;24370;51.986;4.666;2023-10-31T09:15:55;100190.91;;;19.77;59.28
38616;BME280;24370;51.986;4.666;2023-10-31T09:18:20;100199.63;;;19.17;63.19
38616;BME280;24370;51.986;4.666;2023-10-31T09:20:45;100197.63;;;18.89;63.08
38616;BME280;24370;51.986;4.666;2023-10-31T09:23:11;100202.94;;;19.53;61.30
38616;BME280;24370;51.986;4.666;2023-10-31T09:25:36;100202.63;;;19.73;58.39
38616;BME280;24370;51.986;4.666;2023-10-31T09:28:02;100208.41;;;19.49;59.65
38616;BME280;24370;51.986;4.666;2023-10-31T09:30:27;100210.50;;;20.05;57.34
38616;BME280;24370;51.986;4.666;2023-10-31T09:32:52;100214.06;;;19.74;58.07
38616;BME280;24370;51.986;4.666;2023-10-31T09:35:18;100213.25;;;20.04;58.21
38616;BME280;24370;51.986;4.666;2023-10-31T09:37:43;100217.16;;;19.82;55.44
38616;BME280;24370;51.986;4.666;2023-10-31T09:40:10;100222.31;;;20.30;55.83
38616;BME280;24370;51.986;4.666;2023-10-31T09:42:36;100225.72;;;19.71;57.53
38616;BME280;24370;51.986;4.666;2023-10-31T09:45:02;100215.78;;;19.91;55.77
38616;BME280;24370;51.986;4.666;2023-10-31T09:47:29;100224.78;;;20.47;54.37
38616;BME280;24370;51.986;4.666;2023-10-31T09:49:55;100215.28;;;19.84;55.07
38616;BME280;24370;51.986;4.666;2023-10-31T09:52:22;100229.16;;;20.92;52.32
38616;BME280;24370;51.986;4.666;2023-10-31T09:54:49;100219.50;;;20.03;56.32
38616;BME280;24370;51.986;4.666;2023-10-31T09:57:14;100229.47;;;18.71;59.63
38616;BME280;24370;51.986;4.666;2023-10-31T09:59:42;100238.41;;;19.02;61.52
38616;BME280;24370;51.986;4.666;2023-10-31T10:02:07;100231.47;;;19.47;59.04
38616;BME280;24370;51.986;4.666;2023-10-31T10:04:33;100238.31;;;19.52;61.50
38616;BME280;24370;51.986;4.666;2023-10-31T10:09:24;100243.13;;;20.22;58.26
38616;BME280;24370;51.986;4.666;2023-10-31T10:11:51;100251.72;;;20.56;57.25
38616;BME280;24370;51.986;4.666;2023-10-31T10:14:17;100257.38;;;19.74;59.26
38616;BME280;24370;51.986;4.666;2023-10-31T10:16:42;100262.91;;;18.90;62.90
38616;BME280;24370;51.986;4.666;2023-10-31T10:21:56;100268.56;;;18.48;66.88
38616;BME280;24370;51.986;4.666;2023-10-31T10:24:23;100268.50;;;18.15;66.68
38616;BME280;24370;51.986;4.666;2023-10-31T10:26:50;100271.38;;;18.96;63.19
38616;BME280;24370;51.986;4.666;2023-10-31T10:29:16;100272.25;;;19.61;61.53
38616;BME280;24370;51.986;4.666;2023-10-31T10:31:42;100279.59;;;19.88;60.52
38616;BME280;24370;51.986;4.666;2023-10-31T10:34:09;100282.53;;;19.83;59.49
38616;BME280;24370;51.986;4.666;2023-10-31T10:36:34;100290.47;;;19.83;60.32
38616;BME280;24370;51.986;4.666;2023-10-31T10:39:00;100285.78;;;19.40;61.28
38616;BME280;24370;51.986;4.666;2023-10-31T10:41:27;100286.28;;;18.64;65.73
38616;BME280;24370;51.986;4.666;2023-10-31T10:43:57;100285.38;;;18.47;67.76
38616;BME280;24370;51.986;4.666;2023-10-31T10:46:33;100285.00;;;19.22;64.86
38616;BME280;24370;51.986;4.666;2023-10-31T10:48:59;100290.44;;;18.86;65.44
38616;BME280;24370;51.986;4.666;2023-10-31T10:51:35;100290.88;;;19.11;66.22
38616;BME280;24370;51.986;4.666;2023-10-31T10:54:15;100296.00;;;19.14;64.57
38616;BME280;24370;51.986;4.666;2023-10-31T10:56:48;100294.34;;;19.45;64.80
38616;BME280;24370;51.986;4.666;2023-10-31T10:59:21;100294.38;;;18.78;66.56
38616;BME280;24370;51.986;4.666;2023-10-31T11:01:49;100288.00;;;18.47;68.88
38616;BME280;24370;51.986;4.666;2023-10-31T11:04:16;100295.03;;;18.48;68.44
38616;BME280;24370;51.986;4.666;2023-10-31T11:06:42;100300.41;;;18.80;68.46
38616;BME280;24370;51.986;4.666;2023-10-31T11:09:09;100291.91;;;19.41;65.08
38616;BME280;24370;51.986;4.666;2023-10-31T11:11:37;100300.47;;;18.63;68.63
38616;BME280;24370;51.986;4.666;2023-10-31T11:14:03;100306.31;;;18.52;68.72
38616;BME280;24370;51.986;4.666;2023-10-31T11:16:42;100308.09;;;19.03;66.16
38616;BME280;24370;51.986;4.666;2023-10-31T11:19:09;100307.16;;;18.00;69.25
38616;BME280;24370;51.986;4.666;2023-10-31T11:21:35;100315.44;;;18.46;69.14
38616;BME280;24370;51.986;4.666;2023-10-31T11:24:01;100309.16;;;19.00;67.62
38616;BME280;24370;51.986;4.666;2023-10-31T11:26:30;100309.91;;;19.02;65.81
38616;BME280;24370;51.986;4.666;2023-10-31T11:29:05;100311.91;;;19.14;67.90
38616;BME280;24370;51.986;4.666;2023-10-31T11:31:31;100306.72;;;18.95;65.12
38616;BME280;24370;51.986;4.666;2023-10-31T11:34:00;100316.78;;;18.89;65.33
38616;BME280;24370;51.986;4.666;2023-10-31T11:36:26;100318.66;;;17.99;69.56
38616;BME280;24370;51.986;4.666;2023-10-31T11:39:13;100312.19;;;19.58;64.72
38616;BME280;24370;51.986;4.666;2023-10-31T11:41:39;100318.84;;;19.49;67.36
38616;BME280;24370;51.986;4.666;2023-10-31T11:44:04;100318.88;;;18.82;70.03
38616;BME280;24370;51.986;4.666;2023-10-31T11:46:30;100315.59;;;19.28;65.48
38616;BME280;24370;51.986;4.666;2023-10-31T11:48:56;100308.00;;;19.38;66.42
38616;BME280;24370;51.986;4.666;2023-10-31T11:51:22;100316.88;;;19.37;65.24
38616;BME280;24370;51.986;4.666;2023-10-31T11:53:49;100315.97;;;19.86;63.62
38616;BME280;24370;51.986;4.666;2023-10-31T11:56:18;100313.03;;;20.06;59.91
38616;BME280;24370;51.986;4.666;2023-10-31T11:58:44;100308.06;;;21.33;57.97
38616;BME280;24370;51.986;4.666;2023-10-31T12:01:10;100314.66;;;20.09;60.89
38616;BME280;24370;51.986;4.666;2023-10-31T12:03:43;100312.28;;;18.56;65.81
38616;BME280;24370;51.986;4.666;2023-10-31T12:06:13;100311.06;;;19.78;65.69
38616;BME280;24370;51.986;4.666;2023-10-31T12:08:40;100310.66;;;19.86;62.60
38616;BME280;24370;51.986;4.666;2023-10-31T12:13:40;100319.75;;;18.47;68.50
38616;BME280;24370;51.986;4.666;2023-10-31T12:16:08;100311.72;;;19.18;66.31
38616;BME280;24370;51.986;4.666;2023-10-31T12:18:35;100307.03;;;20.33;61.15
38616;BME280;24370;51.986;4.666;2023-10-31T12:21:00;100317.28;;;18.44;65.58
38616;BME280;24370;51.986;4.666;2023-10-31T12:23:26;100312.72;;;18.81;65.65
38616;BME280;24370;51.986;4.666;2023-10-31T12:25:52;100319.78;;;19.64;62.70
38616;BME280;24370;51.986;4.666;2023-10-31T12:30:48;100319.75;;;19.00;62.80
38616;BME280;24370;51.986;4.666;2023-10-31T12:33:15;100325.69;;;20.01;61.06
38616;BME280;24370;51.986;4.666;2023-10-31T12:35:42;100327.06;;;18.95;63.99
38616;BME280;24370;51.986;4.666;2023-10-31T12:38:10;100325.28;;;19.93;60.05
38616;BME280;24370;51.986;4.666;2023-10-31T12:40:36;100326.38;;;20.35;58.25
38616;BME280;24370;51.986;4.666;2023-10-31T12:43:02;100327.81;;;19.30;60.64
38616;BME280;24370;51.986;4.666;2023-10-31T12:45:28;100325.25;;;19.45;61.90
38616;BME280;24370;51.986;4.666;2023-10-31T12:48:07;100327.13;;;19.27;61.84
38616;BME280;24370;51.986;4.666;2023-10-31T12:50:34;100330.03;;;18.36;64.30
38616;BME280;24370;51.986;4.666;2023-10-31T12:53:03;100344.16;;;18.00;66.38
38616;BME280;24370;51.986;4.666;2023-10-31T12:55:30;100332.69;;;18.54;65.53
38616;BME280;24370;51.986;4.666;2023-10-31T12:57:59;100338.38;;;18.46;64.29
38616;BME280;24370;51.986;4.666;2023-10-31T13:00:34;100335.78;;;18.97;64.41